createdAt,value
2018-07-21T00:00:23.865Z,99112.37
2018-07-21T00:00:55.043Z,99111.80
2018-07-21T00:01:26.171Z,99110.83
2018-07-21T00:01:57.396Z,99106.47
2018-07-21T00:02:28.579Z,99106.26
2018-07-21T00:02:59.807Z,99107.09
2018-07-21T00:03:30.927Z,99104.06
2018-07-21T00:04:02.046Z,99114.73
2018-07-21T00:04:33.348Z,99112.42
2018-07-21T00:05:04.565Z,99112.56
2018-07-21T00:05:35.811Z,99107.38
2018-07-21T00:06:07.000Z,99113.55
2018-07-21T00:06:38.172Z,99108.32
2018-07-21T00:07:09.345Z,99112.47
2018-07-21T00:07:40.621Z,99106.78
2018-07-21T00:08:11.760Z,99108.58
2018-07-21T00:08:42.867Z,99105.80
2018-07-21T00:09:14.047Z,99111.46
2018-07-21T00:09:45.232Z,99114.05
2018-07-21T00:10:16.408Z,99110.73
2018-07-21T00:10:47.673Z,99114.61
2018-07-21T00:11:18.916Z,99110.83
2018-07-21T00:11:50.192Z,99111.15
2018-07-21T00:12:21.437Z,99105.81
2018-07-21T00:12:52.625Z,99108.02
2018-07-21T00:13:23.797Z,99111.03
2018-07-21T00:13:55.060Z,99109.20
2018-07-21T00:14:26.298Z,99111.86
2018-07-21T00:14:57.739Z,99108.02
2018-07-21T00:15:28.944Z,99105.20
2018-07-21T00:16:00.114Z,99107.51
2018-07-21T00:16:31.248Z,99111.86
2018-07-21T00:17:02.373Z,99115.60
2018-07-21T00:17:33.552Z,99106.59
2018-07-21T00:18:04.705Z,99106.27
2018-07-21T00:18:35.880Z,99107.72
2018-07-21T00:19:06.999Z,99111.36
2018-07-21T00:19:38.163Z,99109.55
2018-07-21T00:20:09.415Z,99108.69
2018-07-21T00:20:40.535Z,99108.63
2018-07-21T00:21:11.809Z,99103.80
2018-07-21T00:21:42.944Z,99105.96
2018-07-21T00:22:14.200Z,99107.44
2018-07-21T00:22:45.589Z,99108.06
2018-07-21T00:23:16.712Z,99109.55
2018-07-21T00:23:47.883Z,99111.97
2018-07-21T00:24:19.130Z,99105.59
2018-07-21T00:24:50.348Z,99106.63
2018-07-21T00:25:21.695Z,99108.58
2018-07-21T00:25:52.877Z,99108.27
2018-07-21T00:26:24.076Z,99110.21
2018-07-21T00:26:55.285Z,99113.59
2018-07-21T00:27:26.495Z,99111.75
2018-07-21T00:27:57.724Z,99108.87
2018-07-21T00:28:28.844Z,99110.56
2018-07-21T00:29:00.068Z,99109.92
2018-07-21T00:29:31.232Z,99107.55
2018-07-21T00:30:02.461Z,99105.23
2018-07-21T00:30:33.601Z,99107.91
2018-07-21T00:31:04.839Z,99105.59
2018-07-21T00:31:35.952Z,99105.59
2018-07-21T00:32:07.063Z,99108.52
2018-07-21T00:32:38.189Z,99105.14
2018-07-21T00:33:09.441Z,99105.50
2018-07-21T00:33:40.627Z,99106.68
2018-07-21T00:34:11.808Z,99102.92
2018-07-21T00:34:42.963Z,99102.42
2018-07-21T00:35:14.134Z,99104.80
2018-07-21T00:35:45.319Z,99100.80
2018-07-21T00:36:16.442Z,99105.30
2018-07-21T00:36:47.574Z,99108.94
2018-07-21T00:37:18.704Z,99102.06
2018-07-21T00:37:49.829Z,99109.23
2018-07-21T00:38:21.009Z,99104.52
2018-07-21T00:38:52.174Z,99099.48
2018-07-21T00:39:23.417Z,99107.48
2018-07-21T00:39:54.677Z,99106.41
2018-07-21T00:40:25.819Z,99105.37
2018-07-21T00:40:57.056Z,99111.93
2018-07-21T00:41:28.184Z,99109.20
2018-07-21T00:41:59.356Z,99099.58
2018-07-21T00:42:30.587Z,99102.96
2018-07-21T00:43:01.864Z,99110.39
2018-07-21T00:43:33.035Z,99108.38
2018-07-21T00:44:04.238Z,99109.20
2018-07-21T00:44:35.418Z,99108.02
2018-07-21T00:45:06.614Z,99109.48
2018-07-21T00:45:37.735Z,99112.16
2018-07-21T00:46:08.861Z,99107.44
2018-07-21T00:46:40.046Z,99107.70
2018-07-21T00:47:11.171Z,99108.41
2018-07-21T00:47:42.290Z,99111.08
2018-07-21T00:48:13.415Z,99108.27
2018-07-21T00:48:44.585Z,99114.67
2018-07-21T00:49:15.827Z,99081.88
2018-07-21T00:49:46.998Z,99104.02
2018-07-21T00:50:18.129Z,99110.03
2018-07-21T00:50:49.344Z,99110.89
2018-07-21T00:51:20.504Z,99114.03
2018-07-21T00:51:51.711Z,99109.55
2018-07-21T00:52:22.946Z,99109.55
2018-07-21T00:52:54.119Z,99112.01
2018-07-21T00:53:25.260Z,99107.51
2018-07-21T00:53:56.566Z,99108.22
2018-07-21T00:54:27.804Z,99109.70
2018-07-21T00:54:59.007Z,99114.82
2018-07-21T00:55:30.230Z,99111.15
2018-07-21T00:56:01.421Z,99112.84
2018-07-21T00:56:32.588Z,99110.53
2018-07-21T00:57:03.910Z,99108.69
2018-07-21T00:57:35.112Z,99115.50
2018-07-21T00:58:06.236Z,99111.30
2018-07-21T00:58:37.544Z,99106.58
2018-07-21T00:59:08.788Z,99111.69
2018-07-21T00:59:40.007Z,99105.39
2018-07-21T01:00:11.123Z,99105.53
2018-07-21T01:00:42.233Z,99108.34
2018-07-21T01:01:13.372Z,99104.96
2018-07-21T01:01:44.551Z,99079.20
2018-07-21T01:02:15.717Z,99101.11
2018-07-21T01:02:46.938Z,99105.58
2018-07-21T01:03:18.149Z,99103.92
2018-07-21T01:03:49.389Z,99107.55
2018-07-21T01:04:20.575Z,99102.84
2018-07-21T01:04:52.663Z,99103.45
2018-07-21T01:05:23.839Z,99101.80
2018-07-21T01:05:54.953Z,99097.09
2018-07-21T01:06:26.116Z,99100.72
2018-07-21T01:06:57.374Z,99100.72
2018-07-21T01:07:28.523Z,99102.05
2018-07-21T01:07:59.707Z,99096.73
2018-07-21T01:08:30.937Z,99097.91
2018-07-21T01:09:02.220Z,99101.66
2018-07-21T01:09:33.413Z,99100.68
2018-07-21T01:10:04.588Z,99099.92
2018-07-21T01:10:35.735Z,99101.47
2018-07-21T01:11:06.857Z,99104.13
2018-07-21T01:11:38.844Z,99095.63
2018-07-21T01:12:10.069Z,99100.61
2018-07-21T01:12:41.184Z,99100.97
2018-07-21T01:13:12.359Z,99104.34
2018-07-21T01:13:43.836Z,99101.13
2018-07-21T01:14:15.000Z,99100.98
2018-07-21T01:14:46.166Z,99101.34
2018-07-21T01:15:17.361Z,99108.91
2018-07-21T01:15:48.476Z,99108.29
2018-07-21T01:16:19.644Z,99102.34
2018-07-21T01:16:50.837Z,99104.44
2018-07-21T01:17:21.965Z,99101.56
2018-07-21T01:17:53.093Z,99102.47
2018-07-21T01:18:24.217Z,99103.59
2018-07-21T01:18:55.379Z,99105.03
2018-07-21T01:19:26.616Z,99102.04
2018-07-21T01:19:57.733Z,99102.66
2018-07-21T01:20:29.572Z,99105.11
2018-07-21T01:21:00.748Z,99100.53
2018-07-21T01:21:32.040Z,99102.13
2018-07-21T01:22:03.213Z,99106.98
2018-07-21T01:22:34.383Z,99107.45
2018-07-21T01:23:05.817Z,99107.13
2018-07-21T01:23:37.145Z,99105.15
2018-07-21T01:24:08.260Z,99109.29
2018-07-21T01:24:39.527Z,99104.11
2018-07-21T01:25:10.717Z,99108.72
2018-07-21T01:25:41.829Z,99110.05
2018-07-21T01:26:13.061Z,99110.05
2018-07-21T01:26:44.184Z,99106.77
2018-07-21T01:27:16.263Z,99104.94
2018-07-21T01:27:47.381Z,99107.13
2018-07-21T01:28:18.556Z,99104.47
2018-07-21T01:28:49.855Z,99106.98
2018-07-21T01:29:21.113Z,99108.17
2018-07-21T01:29:52.261Z,99114.22
2018-07-21T01:30:23.410Z,99107.20
2018-07-21T01:30:54.574Z,99106.70
2018-07-21T01:31:25.701Z,99108.75
2018-07-21T01:31:56.894Z,99108.95
2018-07-21T01:32:28.148Z,99105.68
2018-07-21T01:33:00.612Z,99112.34
2018-07-21T01:33:31.789Z,99110.72
2018-07-21T01:34:03.100Z,99112.16
2018-07-21T01:34:34.244Z,99106.82
2018-07-21T01:35:05.357Z,99107.15
2018-07-21T01:35:36.546Z,99108.02
2018-07-21T01:36:07.667Z,99109.48
2018-07-21T01:36:38.996Z,99105.75
2018-07-21T01:37:10.192Z,99108.70
2018-07-21T01:37:41.366Z,99111.69
2018-07-21T01:38:12.564Z,99101.33
2018-07-21T01:38:43.731Z,99106.58
2018-07-21T01:39:16.080Z,99104.79
2018-07-21T01:39:47.246Z,99106.63
2018-07-21T01:40:18.466Z,99097.59
2018-07-21T01:40:49.641Z,99097.38
2018-07-21T01:41:20.766Z,99102.13
2018-07-21T01:41:52.060Z,99105.27
2018-07-21T01:42:23.283Z,99110.59
2018-07-21T01:42:54.556Z,99110.59
2018-07-21T01:43:25.684Z,99110.23
2018-07-21T01:43:56.798Z,99106.16
2018-07-21T01:44:27.918Z,99103.50
2018-07-21T01:44:59.086Z,99103.50
2018-07-21T01:45:30.274Z,99109.80
2018-07-21T01:46:01.384Z,99111.63
2018-07-21T01:46:32.609Z,99104.47
2018-07-21T01:47:03.902Z,99110.66
2018-07-21T01:47:35.024Z,99112.82
2018-07-21T01:48:06.253Z,99104.83
2018-07-21T01:48:37.375Z,99113.54
2018-07-21T01:49:08.485Z,99112.06
2018-07-21T01:49:39.668Z,99107.45
2018-07-21T01:50:10.850Z,99110.95
2018-07-21T01:50:41.968Z,99114.69
2018-07-21T01:51:13.156Z,99108.28
2018-07-21T01:51:44.357Z,99106.45
2018-07-21T01:52:15.531Z,99114.69
2018-07-21T01:52:46.749Z,99110.55
2018-07-21T01:53:17.949Z,99110.91
2018-07-21T01:53:49.162Z,99112.35
2018-07-21T01:54:20.323Z,99109.80
2018-07-21T01:54:51.665Z,99111.13
2018-07-21T01:55:22.811Z,99111.73
2018-07-21T01:55:53.928Z,99106.19
2018-07-21T01:56:25.086Z,99108.03
2018-07-21T01:56:56.208Z,99107.31
2018-07-21T01:57:27.431Z,99115.77
2018-07-21T01:57:58.604Z,99117.61
2018-07-21T01:58:29.776Z,99112.78
2018-07-21T01:59:01.181Z,99109.26
2018-07-21T01:59:32.351Z,99107.56
2018-07-21T02:00:03.455Z,99111.70
2018-07-21T02:00:34.618Z,99110.88
2018-07-21T02:01:05.728Z,99107.56
2018-07-21T02:01:36.830Z,99110.45
2018-07-21T02:02:07.995Z,99104.91
2018-07-21T02:02:39.256Z,99115.09
2018-07-21T02:03:10.426Z,99110.73
2018-07-21T02:03:41.617Z,99113.61
2018-07-21T02:04:12.841Z,99112.89
2018-07-21T02:04:44.030Z,99113.91
2018-07-21T02:05:15.170Z,99113.40
2018-07-21T02:05:46.885Z,99112.56
2018-07-21T02:06:19.192Z,99113.91
2018-07-21T02:06:50.295Z,99118.22
2018-07-21T02:07:21.448Z,99118.11
2018-07-21T02:07:52.738Z,99117.11
2018-07-21T02:08:23.870Z,99113.69
2018-07-21T02:08:55.099Z,99109.58
2018-07-21T02:09:26.279Z,99118.11
2018-07-21T02:09:57.432Z,99117.14
2018-07-21T02:10:28.580Z,99119.41
2018-07-21T02:10:59.695Z,99118.28
2018-07-21T02:11:30.807Z,99115.00
2018-07-21T02:12:02.055Z,99116.20
2018-07-21T02:12:33.309Z,99111.84
2018-07-21T02:13:04.532Z,99092.73
2018-07-21T02:13:35.709Z,99116.20
2018-07-21T02:14:07.050Z,99115.91
2018-07-21T02:14:38.964Z,99119.58
2018-07-21T02:15:10.132Z,99119.44
2018-07-21T02:15:41.250Z,99114.10
2018-07-21T02:16:12.435Z,99111.84
2018-07-21T02:16:43.547Z,99120.59
2018-07-21T02:17:14.706Z,99120.23
2018-07-21T02:17:45.870Z,99121.71
2018-07-21T02:18:17.145Z,99117.64
2018-07-21T02:18:48.373Z,99121.78
2018-07-21T02:19:20.072Z,99119.73
2018-07-21T02:19:51.239Z,99117.21
2018-07-21T02:20:22.660Z,99122.33
2018-07-21T02:20:53.836Z,99124.27
2018-07-21T02:21:26.341Z,99121.97
2018-07-21T02:21:57.528Z,99122.33
2018-07-21T02:22:29.300Z,99117.25
2018-07-21T02:23:00.448Z,99126.94
2018-07-21T02:23:31.599Z,99125.09
2018-07-21T02:24:02.708Z,99127.51
2018-07-21T02:24:33.873Z,99128.98
2018-07-21T02:25:04.976Z,99123.66
2018-07-21T02:25:36.124Z,99126.57
2018-07-21T02:26:07.335Z,99121.25
2018-07-21T02:26:38.495Z,99120.77
2018-07-21T02:27:09.675Z,99132.98
2018-07-21T02:27:40.794Z,99127.37
2018-07-21T02:28:11.921Z,99128.91
2018-07-21T02:28:43.151Z,99128.16
2018-07-21T02:29:14.334Z,99124.37
2018-07-21T02:29:45.511Z,99123.33
2018-07-21T02:30:16.677Z,99128.66
2018-07-21T02:30:47.901Z,99120.66
2018-07-21T02:31:19.032Z,99126.00
2018-07-21T02:31:50.157Z,99126.00
2018-07-21T02:32:21.332Z,99121.64
2018-07-21T02:32:52.460Z,99124.09
2018-07-21T02:33:23.579Z,99129.05
2018-07-21T02:33:54.826Z,99126.39
2018-07-21T02:34:26.069Z,99129.09
2018-07-21T02:34:57.238Z,99128.41
2018-07-21T02:35:28.545Z,99129.02
2018-07-21T02:35:59.737Z,99124.55
2018-07-21T02:36:30.913Z,99124.05
2018-07-21T02:37:02.918Z,99123.34
2018-07-21T02:37:34.124Z,99128.80
2018-07-21T02:38:05.309Z,99124.95
2018-07-21T02:38:36.441Z,99130.28
2018-07-21T02:39:07.562Z,99132.58
2018-07-21T02:39:38.786Z,99119.88
2018-07-21T02:40:09.917Z,99133.09
2018-07-21T02:40:41.043Z,99127.76
2018-07-21T02:41:12.256Z,99133.20
2018-07-21T02:41:43.429Z,99131.03
2018-07-21T02:42:14.656Z,99129.70
2018-07-21T02:42:45.829Z,99132.72
2018-07-21T02:43:16.933Z,99131.25
2018-07-21T02:43:48.091Z,99132.58
2018-07-21T02:44:19.261Z,99128.08
2018-07-21T02:44:50.492Z,99129.78
2018-07-21T02:45:21.599Z,99130.14
2018-07-21T02:45:52.819Z,99125.17
2018-07-21T02:46:24.038Z,99128.77
2018-07-21T02:46:55.206Z,99131.65
2018-07-21T02:47:26.581Z,99130.39
2018-07-21T02:47:57.692Z,99129.63
2018-07-21T02:48:28.861Z,99133.84
2018-07-21T02:49:00.104Z,99134.56
2018-07-21T02:49:31.220Z,99136.94
2018-07-21T02:50:02.400Z,99132.33
2018-07-21T02:50:33.525Z,99132.19
2018-07-21T02:51:04.642Z,99133.52
2018-07-21T02:51:35.803Z,99133.52
2018-07-21T02:52:07.060Z,99134.70
2018-07-21T02:52:38.227Z,99131.06
2018-07-21T02:53:09.404Z,99130.56
2018-07-21T02:53:40.525Z,99133.95
2018-07-21T02:54:11.701Z,99127.57
2018-07-21T02:54:42.865Z,99134.02
2018-07-21T02:55:14.000Z,99134.02
2018-07-21T02:55:45.117Z,99131.97
2018-07-21T02:56:16.236Z,99133.56
2018-07-21T02:56:47.454Z,99133.09
2018-07-21T02:57:18.626Z,99131.54
2018-07-21T02:57:49.740Z,99133.84
2018-07-21T02:58:20.846Z,99134.45
2018-07-21T02:58:52.044Z,99133.77
2018-07-21T02:59:23.211Z,99138.09
2018-07-21T02:59:54.341Z,99132.08
2018-07-21T03:00:25.456Z,99138.23
2018-07-21T03:00:56.571Z,99135.94
2018-07-21T03:01:27.756Z,99136.77
2018-07-21T03:01:58.915Z,99130.10
2018-07-21T03:02:30.083Z,99136.91
2018-07-21T03:03:01.342Z,99138.02
2018-07-21T03:03:32.524Z,99133.67
2018-07-21T03:04:03.692Z,99137.66
2018-07-21T03:04:34.818Z,99134.67
2018-07-21T03:05:05.984Z,99135.14
2018-07-21T03:05:37.315Z,99140.00
2018-07-21T03:06:08.495Z,99135.64
2018-07-21T03:06:39.851Z,99139.14
2018-07-21T03:07:11.077Z,99133.05
2018-07-21T03:07:42.246Z,99136.91
2018-07-21T03:08:13.372Z,99129.78
2018-07-21T03:08:44.503Z,99140.44
2018-07-21T03:09:15.610Z,99137.63
2018-07-21T03:09:46.724Z,99138.81
2018-07-21T03:10:17.942Z,99138.20
2018-07-21T03:10:49.068Z,99139.75
2018-07-21T03:11:20.234Z,99118.58
2018-07-21T03:11:51.421Z,99139.75
2018-07-21T03:12:22.751Z,99142.63
2018-07-21T03:12:53.920Z,99138.99
2018-07-21T03:13:25.128Z,99146.27
2018-07-21T03:13:56.357Z,99139.89
2018-07-21T03:14:27.475Z,99141.84
2018-07-21T03:14:58.788Z,99139.32
2018-07-21T03:15:29.974Z,99142.95
2018-07-21T03:16:01.221Z,99136.22
2018-07-21T03:16:32.347Z,99143.86
2018-07-21T03:17:03.468Z,99144.83
2018-07-21T03:17:34.627Z,99152.46
2018-07-21T03:18:05.803Z,99144.97
2018-07-21T03:18:37.005Z,99144.25
2018-07-21T03:19:08.235Z,99152.85
2018-07-21T03:19:39.406Z,99147.53
2018-07-21T03:20:10.544Z,99146.19
2018-07-21T03:20:41.774Z,99151.88
2018-07-21T03:21:13.113Z,99151.52
2018-07-21T03:21:44.302Z,99154.69
2018-07-21T03:22:15.457Z,99156.02
2018-07-21T03:22:46.700Z,99151.20
2018-07-21T03:23:17.917Z,99159.80
2018-07-21T03:23:49.178Z,99158.83
2018-07-21T03:24:20.337Z,99158.69
2018-07-21T03:24:51.536Z,99155.52
2018-07-21T03:25:22.690Z,99155.48
2018-07-21T03:25:53.997Z,99154.23
2018-07-21T03:26:25.188Z,99157.83
2018-07-21T03:26:56.339Z,99154.19
2018-07-21T03:27:27.508Z,99152.09
2018-07-21T03:27:58.618Z,99150.27
2018-07-21T03:28:30.427Z,99150.88
2018-07-21T03:29:01.589Z,99153.22
2018-07-21T03:29:32.841Z,99150.66
2018-07-21T03:30:04.071Z,99155.67
2018-07-21T03:30:35.212Z,99155.78
2018-07-21T03:31:06.485Z,99153.11
2018-07-21T03:31:37.660Z,99155.30
2018-07-21T03:32:08.779Z,99154.19
2018-07-21T03:32:39.977Z,99153.08
2018-07-21T03:33:11.264Z,99154.33
2018-07-21T03:33:42.371Z,99154.16
2018-07-21T03:34:13.495Z,99152.27
2018-07-21T03:34:44.670Z,99154.22
2018-07-21T03:35:15.965Z,99155.08
2018-07-21T03:35:47.143Z,99150.72
2018-07-21T03:36:18.255Z,99152.96
2018-07-21T03:36:49.378Z,99152.39
2018-07-21T03:37:20.494Z,99149.30
2018-07-21T03:37:51.718Z,99147.89
2018-07-21T03:38:22.846Z,99143.78
2018-07-21T03:38:54.020Z,99153.66
2018-07-21T03:39:25.164Z,99152.39
2018-07-21T03:39:56.335Z,99150.12
2018-07-21T03:40:27.461Z,99148.03
2018-07-21T03:40:58.640Z,99150.52
2018-07-21T03:41:29.821Z,99143.53
2018-07-21T03:42:00.944Z,99151.67
2018-07-21T03:42:32.060Z,99148.20
2018-07-21T03:43:03.269Z,99148.66
2018-07-21T03:43:34.486Z,99144.16
2018-07-21T03:44:05.673Z,99144.80
2018-07-21T03:44:37.844Z,99142.35
2018-07-21T03:45:09.076Z,99150.06
2018-07-21T03:45:40.304Z,99142.41
2018-07-21T03:46:14.388Z,99152.19
2018-07-21T03:46:45.533Z,99146.03
2018-07-21T03:47:16.636Z,99141.25
2018-07-21T03:47:47.894Z,99143.92
2018-07-21T03:48:19.072Z,99139.23
2018-07-21T03:48:50.194Z,99138.89
2018-07-21T03:49:21.315Z,99136.72
2018-07-21T03:49:53.438Z,99141.13
2018-07-21T03:50:24.591Z,99139.73
2018-07-21T03:50:55.767Z,99133.62
2018-07-21T03:51:26.897Z,99137.49
2018-07-21T03:51:58.125Z,99136.32
2018-07-21T03:52:29.268Z,99130.63
2018-07-21T03:53:00.384Z,99140.32
2018-07-21T03:53:31.519Z,99138.52
2018-07-21T03:54:02.692Z,99133.44
2018-07-21T03:54:33.900Z,99137.99
2018-07-21T03:55:05.107Z,99138.55
2018-07-21T03:55:36.236Z,99139.30
2018-07-21T03:56:07.409Z,99136.13
2018-07-21T03:56:38.627Z,99137.68
2018-07-21T03:57:09.736Z,99130.40
2018-07-21T03:57:40.904Z,99136.92
2018-07-21T03:58:12.146Z,99141.63
2018-07-21T03:58:43.285Z,99138.97
2018-07-21T03:59:14.412Z,99142.75
2018-07-21T03:59:45.560Z,99134.04
2018-07-21T04:00:16.676Z,99137.00
2018-07-21T04:00:47.807Z,99130.88
2018-07-21T04:01:18.922Z,99134.70
2018-07-21T04:01:50.088Z,99134.63
2018-07-21T04:02:21.273Z,99134.56
2018-07-21T04:02:52.384Z,99133.34
2018-07-21T04:03:23.515Z,99133.70
2018-07-21T04:03:54.660Z,99135.68
2018-07-21T04:04:25.782Z,99136.77
2018-07-21T04:04:56.894Z,99138.23
2018-07-21T04:05:27.999Z,99133.56
2018-07-21T04:05:59.241Z,99135.00
2018-07-21T04:06:30.468Z,99131.07
2018-07-21T04:07:01.650Z,99133.23
2018-07-21T04:07:32.822Z,99131.55
2018-07-21T04:08:03.992Z,99126.17
2018-07-21T04:08:35.172Z,99140.22
2018-07-21T04:09:06.461Z,99136.00
2018-07-21T04:09:37.832Z,99140.63
2018-07-21T04:10:08.952Z,99145.06
2018-07-21T04:10:40.174Z,99145.78
2018-07-21T04:11:11.369Z,99140.80
2018-07-21T04:11:42.568Z,99142.47
2018-07-21T04:12:13.687Z,99139.75
2018-07-21T04:12:45.756Z,99142.52
2018-07-21T04:13:16.875Z,99145.66
2018-07-21T04:13:52.755Z,99140.20
2018-07-21T04:14:24.763Z,99146.68
2018-07-21T04:14:55.900Z,99143.31
2018-07-21T04:15:27.040Z,99145.98
2018-07-21T04:15:58.251Z,99140.00
2018-07-21T04:16:29.467Z,99145.28
2018-07-21T04:17:00.679Z,99147.32
2018-07-21T04:17:31.884Z,99145.94
2018-07-21T04:18:03.149Z,99145.79
2018-07-21T04:18:34.269Z,99154.72
2018-07-21T04:19:06.164Z,99147.98
2018-07-21T04:19:37.743Z,99152.80
2018-07-21T04:20:13.304Z,99148.14
2018-07-21T04:20:44.456Z,99143.27
2018-07-21T04:21:15.628Z,99149.16
2018-07-21T04:21:46.785Z,99147.47
2018-07-21T04:22:17.893Z,99153.11
2018-07-21T04:22:49.074Z,99153.41
2018-07-21T04:23:20.248Z,99150.98
2018-07-21T04:23:51.377Z,99153.28
2018-07-21T04:24:22.496Z,99145.81
2018-07-21T04:24:53.731Z,99153.52
2018-07-21T04:25:24.917Z,99150.05
2018-07-21T04:25:56.099Z,99148.53
2018-07-21T04:26:27.316Z,99142.38
2018-07-21T04:26:58.652Z,99144.29
2018-07-21T04:27:29.820Z,99143.39
2018-07-21T04:28:00.943Z,99146.06
2018-07-21T04:28:32.062Z,99145.81
2018-07-21T04:29:03.255Z,99142.23
2018-07-21T04:29:34.445Z,99141.80
2018-07-21T04:30:05.620Z,99145.47
2018-07-21T04:30:36.907Z,99144.64
2018-07-21T04:31:08.368Z,99140.11
2018-07-21T04:31:39.545Z,99149.64
2018-07-21T04:32:10.781Z,99151.91
2018-07-21T04:32:41.908Z,99148.61
2018-07-21T04:33:13.082Z,99149.66
2018-07-21T04:33:44.213Z,99149.73
2018-07-21T04:34:15.355Z,99149.27
2018-07-21T04:34:46.585Z,99146.45
2018-07-21T04:35:17.763Z,99151.73
2018-07-21T04:35:49.003Z,99145.77
2018-07-21T04:36:20.181Z,99146.86
2018-07-21T04:36:51.295Z,99147.27
2018-07-21T04:37:22.435Z,99147.16
2018-07-21T04:37:53.580Z,99149.56
2018-07-21T04:38:24.812Z,99153.38
2018-07-21T04:38:55.953Z,99154.00
2018-07-21T04:39:27.124Z,99118.00
2018-07-21T04:39:58.340Z,99152.59
2018-07-21T04:40:29.622Z,99159.00
2018-07-21T04:41:00.877Z,99151.02
2018-07-21T04:41:32.065Z,99149.03
2018-07-21T04:42:03.191Z,99154.02
2018-07-21T04:42:34.417Z,99155.72
2018-07-21T04:43:05.713Z,99157.06
2018-07-21T04:43:36.854Z,99147.80
2018-07-21T04:44:08.019Z,99149.32
2018-07-21T04:44:39.193Z,99152.34
2018-07-21T04:45:10.380Z,99156.30
2018-07-21T04:45:41.507Z,99154.98
2018-07-21T04:46:12.666Z,99155.97
2018-07-21T04:46:43.787Z,99158.81
2018-07-21T04:47:14.912Z,99156.88
2018-07-21T04:47:46.092Z,99155.40
2018-07-21T04:48:17.285Z,99157.80
2018-07-21T04:48:48.403Z,99164.16
2018-07-21T04:49:19.529Z,99160.66
2018-07-21T04:49:50.729Z,99159.19
2018-07-21T04:50:21.860Z,99160.78
2018-07-21T04:50:52.987Z,99164.28
2018-07-21T04:51:24.144Z,99164.77
2018-07-21T04:51:55.383Z,99166.20
2018-07-21T04:52:26.505Z,99165.83
2018-07-21T04:52:57.636Z,99168.85
2018-07-21T04:53:28.812Z,99171.48
2018-07-21T04:54:00.012Z,99160.78
2018-07-21T04:54:31.178Z,99167.58
2018-07-21T04:55:02.339Z,99172.27
2018-07-21T04:55:33.543Z,99171.33
2018-07-21T04:56:04.744Z,99170.74
2018-07-21T04:56:35.910Z,99178.87
2018-07-21T04:57:07.080Z,99176.26
2018-07-21T04:57:38.315Z,99181.67
2018-07-21T04:58:09.533Z,99175.91
2018-07-21T04:58:40.707Z,99178.74
2018-07-21T04:59:11.858Z,99160.66
2018-07-21T04:59:42.974Z,99181.64
2018-07-21T05:00:14.263Z,99180.92
2018-07-21T05:00:45.451Z,99179.65
2018-07-21T05:01:16.714Z,99181.75
2018-07-21T05:01:47.972Z,99178.55
2018-07-21T05:02:19.389Z,99183.34
2018-07-21T05:02:50.504Z,99180.92
2018-07-21T05:03:21.693Z,99177.70
2018-07-21T05:03:52.864Z,99189.02
2018-07-21T05:04:24.054Z,99184.03
2018-07-21T05:04:55.229Z,99182.19
2018-07-21T05:05:26.487Z,99178.37
2018-07-21T05:05:57.684Z,99179.58
2018-07-21T05:06:28.831Z,99185.87
2018-07-21T05:06:59.953Z,99183.44
2018-07-21T05:07:31.130Z,99188.13
2018-07-21T05:08:02.243Z,99185.59
2018-07-21T05:08:33.450Z,99186.58
2018-07-21T05:09:04.572Z,99196.25
2018-07-21T05:09:35.707Z,99187.02
2018-07-21T05:10:07.029Z,99193.66
2018-07-21T05:10:38.166Z,99189.94
2018-07-21T05:11:09.336Z,99187.25
2018-07-21T05:11:40.460Z,99187.28
2018-07-21T05:12:11.641Z,99190.80
2018-07-21T05:12:42.944Z,99181.72
2018-07-21T05:13:14.097Z,99188.87
2018-07-21T05:13:45.351Z,99202.14
2018-07-21T05:14:16.668Z,99190.48
2018-07-21T05:14:47.783Z,99195.76
2018-07-21T05:15:18.940Z,99197.22
2018-07-21T05:15:50.357Z,99200.89
2018-07-21T05:16:21.592Z,99200.25
2018-07-21T05:16:52.809Z,99195.24
2018-07-21T05:17:23.965Z,99193.98
2018-07-21T05:17:55.148Z,99201.15
2018-07-21T05:18:26.291Z,99198.73
2018-07-21T05:18:57.417Z,99196.61
2018-07-21T05:19:28.536Z,99197.99
2018-07-21T05:19:59.826Z,99200.85
2018-07-21T05:20:30.958Z,99204.70
2018-07-21T05:21:02.086Z,99195.28
2018-07-21T05:21:33.305Z,99198.27
2018-07-21T05:22:04.484Z,99191.85
2018-07-21T05:22:35.653Z,99193.83
2018-07-21T05:23:06.868Z,99207.34
2018-07-21T05:23:37.994Z,99205.06
2018-07-21T05:24:09.164Z,99197.30
2018-07-21T05:24:40.280Z,99200.42
2018-07-21T05:25:11.397Z,99199.00
2018-07-21T05:25:42.524Z,99203.44
2018-07-21T05:26:13.635Z,99205.75
2018-07-21T05:26:44.836Z,99205.57
2018-07-21T05:27:16.077Z,99202.98
2018-07-21T05:27:47.487Z,99209.47
2018-07-21T05:28:18.665Z,99202.72
2018-07-21T05:28:49.908Z,99205.91
2018-07-21T05:29:21.063Z,99208.56
2018-07-21T05:29:52.333Z,99214.75
2018-07-21T05:30:23.458Z,99206.88
2018-07-21T05:30:54.599Z,99208.19
2018-07-21T05:31:25.907Z,99207.95
2018-07-21T05:31:57.109Z,99202.86
2018-07-21T05:32:28.341Z,99203.02
2018-07-21T05:32:59.519Z,99205.70
2018-07-21T05:33:30.674Z,99211.78
2018-07-21T05:34:01.959Z,99210.69
2018-07-21T05:34:33.208Z,99212.21
2018-07-21T05:35:04.409Z,99209.85
2018-07-21T05:35:35.534Z,99210.52
2018-07-21T05:36:06.722Z,99211.54
2018-07-21T05:36:37.931Z,99207.52
2018-07-21T05:37:09.409Z,99206.53
2018-07-21T05:37:40.536Z,99210.70
2018-07-21T05:38:11.744Z,99212.50
2018-07-21T05:38:42.928Z,99211.24
2018-07-21T05:39:14.192Z,99204.55
2018-07-21T05:39:45.653Z,99206.55
2018-07-21T05:40:16.904Z,99203.92
2018-07-21T05:40:48.068Z,99209.51
2018-07-21T05:41:19.190Z,99206.03
2018-07-21T05:41:50.397Z,99204.09
2018-07-21T05:42:21.567Z,99209.60
2018-07-21T05:42:52.683Z,99205.08
2018-07-21T05:43:23.816Z,99202.20
2018-07-21T05:43:54.989Z,99201.86
2018-07-21T05:44:26.220Z,99210.27
2018-07-21T05:44:58.524Z,99209.54
2018-07-21T05:45:29.651Z,99201.19
2018-07-21T05:46:00.835Z,99206.45
2018-07-21T05:46:32.188Z,99203.31
2018-07-21T05:47:04.365Z,99209.88
2018-07-21T05:47:35.686Z,99207.66
2018-07-21T05:48:06.855Z,99205.59
2018-07-21T05:48:37.993Z,99206.73
2018-07-21T05:49:09.266Z,99208.13
2018-07-21T05:49:40.394Z,99207.87
2018-07-21T05:50:11.509Z,99204.09
2018-07-21T05:50:42.692Z,99209.30
2018-07-21T05:51:13.871Z,99208.16
2018-07-21T05:51:45.243Z,99208.84
2018-07-21T05:52:16.412Z,99205.14
2018-07-21T05:52:47.523Z,99212.20
2018-07-21T05:53:18.669Z,99211.55
2018-07-21T05:53:49.772Z,99209.87
2018-07-21T05:54:20.946Z,99211.88
2018-07-21T05:54:52.124Z,99209.53
2018-07-21T05:55:23.301Z,99208.85
2018-07-21T05:55:54.612Z,99207.52
2018-07-21T05:56:25.739Z,99214.20
2018-07-21T05:56:56.898Z,99217.92
2018-07-21T05:57:28.075Z,99213.55
2018-07-21T05:57:59.187Z,99220.92
2018-07-21T05:58:30.309Z,99218.73
2018-07-21T05:59:01.420Z,99218.59
2018-07-21T05:59:33.889Z,99214.73
2018-07-21T06:00:05.007Z,99218.25
2018-07-21T06:00:36.313Z,99221.59
2018-07-21T06:01:07.489Z,99217.73
2018-07-21T06:01:38.733Z,99219.58
2018-07-21T06:02:09.916Z,99219.59
2018-07-21T06:02:41.077Z,99223.48
2018-07-21T06:03:12.313Z,99225.00
2018-07-21T06:03:43.443Z,99218.13
2018-07-21T06:04:14.559Z,99216.95
2018-07-21T06:04:45.678Z,99221.98
2018-07-21T06:05:16.845Z,99222.80
2018-07-21T06:05:48.075Z,99219.94
2018-07-21T06:06:19.361Z,99224.29
2018-07-21T06:06:50.495Z,99229.67